Accueil
METAR-TAF:

METAR-TAF

Aéroports :

Lusaka, Zambie

Aéroport international de Lusaka

latitude: 15-19-51S, longitude: 028-27-09E, altitude: 1152 m

Observation

Le bulletin a été fait il y a 24 minutes, à 20:00 UTC
Vent 2 kt de direction variable
Température 18°C
Humidité 88%
Pression 1021 hPa
Visibilité 10 km ou plus
pas de nuages en-dessous de 1500 mètres et pas de cumulonimbus.

METAR: FLKK 222000Z VRB02KT CAVOK 18/16 Q1021

Heure: 22:24 (20:24 UTC)

Prévision

Le bulletin a été fait il y a 2 heures et 24 minutes, à 18:00 UTC
Prévision valable du 22 à 18 UTC au 23 à 24 UTC
Vent 4 kt de direction variable
Visibilité 10 km ou plus
pas de nuages en-dessous de 1500 mètres et pas de cumulonimbus.
Evoluant progressivement
du 23 à 09 UTC au 23 à 13 UTC
Vent 10 kt de est
Visibilité 10 km ou plus
Nuages épars à une hauteur de 3000 ft

TAF: FLKK 221800Z 2218/2324 VRB04KT CAVOK BECMG 2309/2313 10010KT 9999 SCT030

Observations et prévisions météorologiques de plus de 4000 aéroports (messages METAR et TAF).

Les stations disponibles sont représentées par des disques jaunes et rouges sur la carte.

Passer la souris dessus pour voir le nom de la station.

Cliquer dessus pour voir les observations et prévisions météorologiques.

Pour changer de carte: cliquez sur les boutons verts avec une croix noire pour zoomer, sur le bouton vert avec un tiret pour effectuer un zoom arrière, ou sur les flèches vertes pour les cartes adjacentes.


METAR-TAF: